Flushing, NY

5:57 PM EDT on July 30, 2016 (GMT -0400)
Cedar Grove Cemetery, Flushing | | Change Station

Elev 49 ft 40.74 °N, 73.83 °W | Updated 3 minutes ago

Light Rain
Light Rain
75.4 °F
Feels Like 75 °F
N
5.3
Wind Variable Wind from East

Today
High -- | Low -- °F
--% Chance of Precip.
Yesterday
High -- | Low -- °F
Precip. -- in
Pressure 30.01 in
Visibility 7.0 miles
Clouds Few 1500 ft
Scattered Clouds 2500 ft
Overcast 10000 ft
Heat Index 75 °F
Dew Point 72 °F
Humidity 89%
Rainfall 0.05 in
Snow Depth Not available.
5:50 AM 8:12 PM
Waning Crescent, 11% visible
METAR KLGA 302151Z 17011KT 7SM -RA FEW015 SCT025 OVC100 26/23 A3001 RMK AO2 SLP163 P0004 T02560228
Pressure 30.01 in
Visibility 7.0 miles
Clouds Few 1500 ft
Scattered Clouds 2500 ft
Overcast 10000 ft
Heat Index 75 °F
Dew Point 72 °F
Humidity 89%
Rainfall 0.05 in
Snow Depth Not available.
5:50 AM 8:12 PM
Waning Crescent, 11% visible
METAR KLGA 302151Z 17011KT 7SM -RA FEW015 SCT025 OVC100 26/23 A3001 RMK AO2 SLP163 P0004 T02560228

10-Day Weather Forecast

Almanac

Astronomy

Jul. 30, 2016 Rise Set
Actual Time
Civil Twilight
Nautical Twilight
Astronomical Twilight
Moon
Length of Visible Light
Length of Day
Tomorrow will be .
, % of the Moon is Illuminated

Today's Extremes

State Highs State Lows

Community

WunderPhotos

Upload Photos

1,928,657 photos uploaded!

WunderBlog® & News

Nearby

Air Quality

  Air Quality AQ Index Pollutant
Not available.

Snow Depth

Station Depth Elevation

Earthquake Activity

City Distance Mag. Time & Date
Minimum magnitude displayed is 2.5.

Coastal Water Temperatures

Place Temperature

Stations

Nearby Weather Stations

Station Location Temp. Windchill Dew Point Humidity Wind Precip. Elev Updated Type
                   

Watches & Warnings

There are currently no watches in effect.